Terminal Aerodrome Forecast
Issued by NWS

Current Version | Previous Version | Text Only | Print | Product List | Glossary On
Versions: 1 2 3 4 5 6 7 8 9 10 11 12 13 14
000
FTUS46 KHNX 241700
TAFMCE
TAF
KMCE 241729Z 2418/2518 33010G15KT P6SM SCT200
     FM242200 33015G21KT P6SM BKN200
     FM250700 33010KT P6SM BKN100
     FM251400 32010KT P6SM BKN050 OVC090
      TEMPO 2514/2518 4SM -RA BKN035=

USA.gov is the U.S. government's official web portal to all federal, state and local government web resources and services.